x

Seal Rocks - Between Montague And Hinchinbrook Islands, Ak (46061) Wave Buoy

10:50pm - Sat 20th Dec 2014 All times are AKST. -9 hours from GMT.

  • Sig Wave height 10.5ft
  • Swell Direction
  • Peak Period 9s
  • Average Period 7s
  • Wind
    25mph, 31mph gusts
  • Sea Temp 46°f
  • Air Temp 41°f
  • Sea Pressure 977mb
  • Seal Rocks - Between Montague And Hinchinbrook Islands, Ak
  • Seal Rocks - Between Montague And Hinchinbrook Islands, Ak

More Historic Weather Station data

Upgrade to MSW Pro to gain access to the past 30 days of data for over 8000 Wavebouys and Weather Stations around the globe.

Join Pro

Comparision Forecast

View Surf forecast
   
Sat 12/20 10:50pm 10.5ft 9s 7s 25 31 mph 977mb 46f 41f
9:50pm 12ft 12s 8s 20 27 mph 976.9mb 46f 42f
8:50pm 11ft 10s 8s 20 25 mph 976.4mb 46f 39f
7:50pm 9.5ft 11s 8s 22 27 mph 975.8mb 47f 38f
6:50pm 8.5ft 11s 8s 20 27 mph 975.8mb 47f 38f
5:50pm 7ft 11s 8s 20 25 mph 975.2mb 47f 38f
4:50pm 7.5ft 11s 8s 20 22 mph 975.4mb 46f 38f
3:50pm 6.5ft 10s 7s 13 20 mph 975.8mb 46f 40f
2:50pm 5.5ft 11s 7s 11 16 mph 975.9mb 47f 42f
1:50pm 7ft 11s 8s 16 18 mph 975.7mb 46f 42f
12:50pm 6ft 11s 7s 11 16 mph 976mb 46f 42f
11:50am 5.5ft 11s 8s 13 18 mph 976.2mb 46f 42f
10:50am 5.5ft 11s 7s 13 16 mph 976.3mb 45f 43f
9:50am 7.5ft 11s 8s 16 20 mph 976.2mb 45f 43f
8:50am 7ft 11s 8s 18 20 mph 976.7mb 45f 42f
7:50am 8ft 11s 7s 16 18 mph 977.2mb 46f 43f
6:50am 11ft 11s 8s 9 13 mph 978.3mb 46f 45f
5:50am 10ft 11s 8s 11 16 mph 979.3mb 46f 45f
4:50am 10ft 11s 8s 13 16 mph 980mb 47f 45f
3:50am 9ft 11s 9s 11 13 mph 980.7mb 47f 44f
2:50am 8ft 11s 8s 13 18 mph 981mb 46f 44f
1:50am 8ft 11s 8s 16 18 mph 981.7mb 46f 43f
12:50am 8ft 13s 8s 25 34 mph 982.5mb 46f 43f
Fri 12/19 11:50pm 7ft 11s 8s 13 18 mph 982.2mb 45f 46f
10:50pm 8ft 13s 9s 11 18 mph 982.6mb 45f 44f
9:50pm 8ft 11s 9s 11 16 mph 983.1mb 45f 42f
8:50pm 9ft 11s 8s 13 16 mph 983.5mb 46f 43f
7:50pm 10ft 11s 8s 13 16 mph 984.1mb 46f 42f
6:50pm 11ft 11s 8s 13 16 mph 984.7mb 46f 42f
5:50pm 10ft 11s 8s 13 16 mph 985.1mb 47f 42f
4:50pm 10ft 11s 8s 11 13 mph 985.7mb 47f 42f
3:50pm 8ft 12s 7s 20 29 mph 986mb 47f 43f
2:50pm 7.5ft 11s 7s 22 27 mph 986mb 47f 43f
1:50pm 8ft 12s 8s 22 27 mph 986.3mb 46f 43f
12:50pm 8ft 13s 8s 18 22 mph 986.8mb 46f 43f
11:50am 8.5ft 13s 8s 22 27 mph 986.9mb 46f 43f
10:50am 11ft 12s 9s 27 31 mph 986.9mb 47f 43f
9:50am 11ft 13s 9s 27 31 mph 986.9mb 47f 42f
8:50am 12ft 12s 9s 27 31 mph 986.9mb 47f 42f
7:50am 14ft 12s 9s 27 34 mph 986.8mb 47f 43f
6:50am 15.5ft 12s 9s 25 34 mph 987mb 47f 43f
5:50am 16.5ft 11s 9s 25 29 mph 987.1mb 47f 42f
4:50am 15ft 11s 8s 27 31 mph 987.1mb 47f 43f
3:50am 13ft 12s 9s 31 36 mph 986.9mb 47f 44f
2:50am 10ft 11s 8s 27 31 mph 987.3mb 47f 44f
1:50am 8ft 11s 7s 29 36 mph 987.6mb 47f 43f
12:50am 8ft 11s 8s 25 29 mph 987.9mb 47f 42f
Thu 12/18 11:50pm 8ft 11s 9s 20 27 mph 988.2mb 46f 44f
10:50pm 7.5ft 11s 8s 13 16 mph 988mb 45f 45f
9:50pm 9ft 11s 9s 7 11 mph 988.3mb 45f 43f
8:50pm 10ft 11s 9s 9 11 mph 988.2mb 46f 42f
7:50pm 9ft 10s 8s 13 18 mph 988.1mb 46f 42f
6:50pm 10ft 10s 8s 13 18 mph 988.6mb 46f 42f
5:50pm 10ft 9s 8s 18 22 mph 988.9mb 46f 42f
4:50pm 9.5ft 10s 8s 18 22 mph 989.9mb 46f 42f
3:50pm 8ft 10s 8s 16 22 mph 990.9mb 46f 43f
2:50pm 8.5ft 10s 9s 16 20 mph 991.8mb 46f 42f
1:50pm 6.5ft 11s 8s 16 20 mph 992.8mb 47f 42f
12:50pm 5ft 11s 7s 11 16 mph 993.9mb 46f 41f
11:50am 6ft 9s 7s 13 16 mph 994.6mb 46f 42f
10:50am 7ft 10s 8s 16 20 mph 995mb 46f 42f
9:50am 6.5ft 10s 7s 13 16 mph 995.7mb 46f 42f
8:50am 6ft 9s 7s 7 9 mph 996.4mb 45f 42f
7:50am 6ft 8s 7s 4 7 mph 997.2mb 45f 42f
6:50am 6ft 7s 7s 7 9 mph 997.6mb 45f 41f
5:50am 5.5ft 7s 6s 11 16 mph 997.8mb 46f 42f
4:50am 5.5ft 7s 6s 11 13 mph 998.5mb 46f 43f
3:50am 5.5ft 9s 6s 9 11 mph 999.5mb 46f 42f
2:50am 5ft 10s 6s 16 18 mph 999.6mb 46f 42f
1:50am 5ft 10s 6s 13 16 mph 1000.3mb 46f 42f
12:50am 4.5ft 11s 6s 16 18 mph 1000.9mb 45f 42f
Wed 12/17 11:50pm 4.5ft 11s 7s 16 20 mph 1001.2mb 45f 42f
10:50pm 5ft 11s 7s 22 27 mph 1001.3mb 46f 42f
8:50pm 6ft 11s 6s 20 25 mph 1001.9mb 47f 41f
7:50pm 7ft 11s 6s 22 27 mph 1002.1mb 46f 41f
6:50pm 7ft 11s 7s 25 31 mph 1002mb 46f 40f
5:50pm 6.5ft 11s 6s 25 27 mph 1002.2mb 47f 40f
4:50pm 7.5ft 11s 7s 16 22 mph 1002.6mb 47f 38f
3:50pm 7ft 11s 6s 25 31 mph 1002mb 47f 40f
2:50pm 7ft 11s 6s 25 34 mph 1001.9mb 47f 41f
1:50pm 7ft 11s 7s 29 34 mph 1002mb 46f 41f
12:50pm 6ft 11s 7s 20 34 mph 1002mb 46f 42f
11:50am 5.5ft 11s 7s 20 29 mph 1001.9mb 46f 40f
10:50am 6.5ft 11s 6s 25 29 mph 1001.4mb 46f 43f
9:50am 6ft 11s 7s 25 27 mph 1000.8mb 46f 44f